Time;durP1;ratioP1;P1;durP2;ratioP2;P2;SDS_P1;SDS_P2;PMS_P1;PMS_P2;Temp;Humidity;BMP_temperature;BMP_pressure;BME280_temperature;BME280_humidity;BME280_pressure;Samples;Min_cycle;Max_cycle;Signal;HPM_P1;HPM_P2
2023/03/21 00:01:04;;;;;;;5.43;5.00;;;9.10;97.30;;;;;;5061414;28;20856;-81
2023/03/21 00:03:31;;;;;;;15.07;7.13;;;9.10;97.30;;;;;;5061538;28;20508;-84
2023/03/21 00:05:56;;;;;;;7.30;5.80;;;9.10;97.30;;;;;;5066098;28;20525;-84
2023/03/21 00:08:24;;;;;;;5.33;4.17;;;9.10;97.30;;;;;;5085224;28;20433;-80
2023/03/21 00:11:02;;;;;;;6.83;4.50;;;9.10;97.30;;;;;;5056796;28;20172;-80
2023/03/21 00:13:31;;;;;;;5.47;4.50;;;9.10;97.30;;;;;;5060970;28;20454;-79
2023/03/21 00:16:02;;;;;;;6.43;3.97;;;9.20;97.30;;;;;;5055613;28;20418;-79
2023/03/21 00:18:28;;;;;;;10.80;4.63;;;9.10;97.30;;;;;;5060439;28;20537;-80
2023/03/21 00:20:58;;;;;;;14.73;6.17;;;9.10;97.30;;;;;;5054554;28;20505;-80
2023/03/21 00:23:29;;;;;;;10.13;7.40;;;9.10;97.30;;;;;;5063290;28;20210;-80
2023/03/21 00:25:55;;;;;;;9.87;6.60;;;9.10;97.30;;;;;;5070318;28;20925;-79
2023/03/21 00:28:22;;;;;;;10.17;6.20;;;9.10;97.30;;;;;;5058024;28;20438;-79
2023/03/21 00:30:47;;;;;;;9.00;4.20;;;9.10;97.30;;;;;;5055118;28;20418;-82
2023/03/21 00:33:13;;;;;;;6.17;3.73;;;9.10;97.30;;;;;;5056230;28;20452;-81
2023/03/21 00:35:42;;;;;;;19.10;6.40;;;9.10;97.30;;;;;;5057257;28;20225;-80
2023/03/21 00:38:08;;;;;;;5.03;4.43;;;9.10;97.30;;;;;;5061548;28;20377;-79
2023/03/21 00:40:34;;;;;;;9.27;5.40;;;9.20;97.30;;;;;;5062830;28;20951;-79
2023/03/21 00:42:59;;;;;;;6.77;4.83;;;9.20;97.30;;;;;;5062234;28;20476;-79
2023/03/21 00:45:25;;;;;;;2.83;2.30;;;9.10;97.30;;;;;;5066518;28;20661;-81
2023/03/21 00:47:50;;;;;;;16.67;4.60;;;9.20;97.30;;;;;;5067569;28;20199;-79
2023/03/21 00:50:17;;;;;;;4.50;2.90;;;9.20;97.30;;;;;;5061694;28;20711;-79
2023/03/21 00:52:42;;;;;;;6.50;3.20;;;9.20;97.30;;;;;;5067282;28;20278;-79
2023/03/21 00:55:16;;;;;;;8.97;3.97;;;9.10;97.30;;;;;;5071954;28;20508;-84
2023/03/21 00:57:42;;;;;;;3.40;3.20;;;9.10;97.30;;;;;;5075792;28;20207;-79
2023/03/21 01:00:10;;;;;;;5.30;2.60;;;9.10;97.30;;;;;;5076484;28;20413;-80
2023/03/21 01:02:37;;;;;;;5.20;4.60;;;9.00;97.30;;;;;;5071621;28;20453;-80
2023/03/21 01:05:04;;;;;;;6.37;3.00;;;9.00;97.30;;;;;;5064998;28;20450;-81
2023/03/21 01:07:29;;;;;;;2.10;1.97;;;8.90;97.30;;;;;;5070358;28;20524;-79
2023/03/21 01:09:55;;;;;;;3.67;2.07;;;8.90;97.30;;;;;;5052670;28;21004;-79
2023/03/21 01:12:20;;;;;;;2.50;2.30;;;8.80;97.30;;;;;;5059996;28;20298;-79
2023/03/21 01:14:46;;;;;;;3.73;2.40;;;8.80;97.30;;;;;;5055356;28;20655;-83
2023/03/21 01:17:12;;;;;;;4.27;2.80;;;8.70;97.30;;;;;;5058285;28;20179;-80
2023/03/21 01:19:37;;;;;;;16.17;3.20;;;8.60;97.30;;;;;;5055797;28;20244;-79
2023/03/21 01:22:03;;;;;;;13.07;4.23;;;8.50;97.30;;;;;;5061759;28;20207;-81
2023/03/21 01:24:29;;;;;;;2.90;2.40;;;8.50;97.30;;;;;;5064534;28;20176;-80
2023/03/21 01:26:54;;;;;;;3.43;2.23;;;8.40;97.30;;;;;;5066300;28;20177;-81
2023/03/21 01:29:20;;;;;;;3.00;2.80;;;8.30;97.30;;;;;;5066227;28;20536;-79
2023/03/21 01:31:45;;;;;;;2.90;2.70;;;8.30;97.30;;;;;;5055802;28;20538;-80
2023/03/21 01:34:11;;;;;;;6.30;3.67;;;8.20;97.30;;;;;;5065081;28;20278;-81
2023/03/21 01:36:36;;;;;;;3.30;2.63;;;8.20;97.30;;;;;;5066001;28;20179;-79
2023/03/21 01:39:03;;;;;;;4.13;3.20;;;8.20;97.30;;;;;;5061873;28;20222;-79
2023/03/21 01:41:40;;;;;;;5.80;3.47;;;8.10;97.30;;;;;;5059197;28;20183;-79
2023/03/21 01:44:08;;;;;;;2.53;2.33;;;8.10;97.30;;;;;;5063849;28;20472;-79
2023/03/21 01:46:48;;;;;;;3.70;3.50;;;8.10;97.30;;;;;;5065304;28;20435;-80
2023/03/21 01:49:13;;;;;;;3.67;3.03;;;8.10;97.30;;;;;;5065479;28;20449;-80
2023/03/21 01:51:47;;;;;;;3.97;3.33;;;8.10;97.30;;;;;;5063274;28;20420;-79
2023/03/21 01:54:23;;;;;;;6.00;4.80;;;8.10;97.30;;;;;;5065853;28;20646;-81
2023/03/21 01:56:50;;;;;;;3.33;2.77;;;8.10;97.30;;;;;;5068838;28;20421;-80
2023/03/21 01:59:22;;;;;;;7.67;4.80;;;8.10;97.30;;;;;;5059939;28;20449;-81
2023/03/21 02:01:50;;;;;;;4.13;3.53;;;8.10;97.30;;;;;;5065885;28;20457;-79
2023/03/21 02:04:20;;;;;;;3.43;2.73;;;8.10;97.30;;;;;;5067440;28;20429;-79
2023/03/21 02:07:04;;;;;;;4.40;3.20;;;8.10;97.30;;;;;;5060758;28;20433;-80
2023/03/21 02:09:36;;;;;;;4.90;4.40;;;8.20;97.30;;;;;;5068721;28;20449;-82
2023/03/21 02:12:03;;;;;;;3.17;2.77;;;8.20;97.30;;;;;;5055879;28;20422;-85
2023/03/21 02:14:32;;;;;;;3.00;2.50;;;8.20;97.30;;;;;;5064416;28;20424;-85
2023/03/21 02:17:16;;;;;;;2.37;2.17;;;8.10;97.30;;;;;;5070603;28;20815;-86
2023/03/21 02:20:20;;;;;;;3.57;2.80;;;8.20;97.30;;;;;;5057337;28;20489;-85
2023/03/21 02:22:55;;;;;;;16.93;3.30;;;8.10;97.30;;;;;;5067886;28;20579;-84
2023/03/21 02:25:45;;;;;;;5.70;3.93;;;8.10;97.30;;;;;;5069709;28;20416;-85
2023/03/21 02:28:11;;;;;;;3.93;3.43;;;8.10;97.30;;;;;;5072733;28;20529;-85
2023/03/21 02:30:43;;;;;;;3.53;2.70;;;8.10;97.30;;;;;;5074483;28;21069;-84
2023/03/21 02:33:26;;;;;;;4.70;2.70;;;8.10;97.30;;;;;;5069817;28;20168;-84
2023/03/21 02:36:25;;;;;;;11.00;4.90;;;8.10;97.30;;;;;;5057139;28;20453;-86
2023/03/21 02:39:12;;;;;;;3.53;3.37;;;8.10;97.30;;;;;;5062789;28;20493;-86
2023/03/21 02:41:53;;;;;;;4.07;2.57;;;8.00;97.30;;;;;;5057910;28;20574;-85
2023/03/21 02:44:26;;;;;;;5.10;3.33;;;8.00;97.30;;;;;;5071327;28;20417;-84
2023/03/21 02:46:56;;;;;;;4.37;2.07;;;8.00;97.30;;;;;;5077516;28;20520;-85
2023/03/21 02:49:28;;;;;;;2.97;2.77;;;8.00;97.30;;;;;;5066783;28;21036;-85
2023/03/21 02:51:57;;;;;;;1.97;1.87;;;7.90;97.30;;;;;;5065824;28;20424;-85
2023/03/21 02:54:25;;;;;;;4.37;3.40;;;7.90;97.30;;;;;;5059831;28;20422;-85
2023/03/21 02:56:52;;;;;;;5.00;4.73;;;7.90;97.30;;;;;;5056980;28;20656;-82
2023/03/21 02:59:21;;;;;;;9.10;5.43;;;7.90;97.30;;;;;;5068388;28;20456;-84
2023/03/21 03:01:46;;;;;;;4.27;3.53;;;7.90;97.30;;;;;;5064847;28;20454;-85
2023/03/21 03:04:26;;;;;;;6.43;3.20;;;7.90;97.30;;;;;;5074310;28;20409;-84
2023/03/21 03:06:57;;;;;;;2.33;2.13;;;7.80;97.30;;;;;;5067924;28;20175;-84
2023/03/21 03:09:42;;;;;;;3.00;2.60;;;7.80;97.30;;;;;;5065892;28;20483;-85
2023/03/21 03:12:40;;;;;;;6.90;3.70;;;7.80;97.30;;;;;;5064485;28;20544;-85
2023/03/21 03:15:46;;;;;;;5.93;3.53;;;7.80;97.30;;;;;;5055223;28;20419;-84
2023/03/21 03:18:40;;;;;;;4.13;2.20;;;7.80;97.30;;;;;;5073861;28;20832;-86
2023/03/21 03:21:26;;;;;;;15.07;2.93;;;7.80;97.30;;;;;;5090001;28;20422;-84
2023/03/21 03:24:00;;;;;;;4.60;2.50;;;7.80;97.30;;;;;;5061167;28;20518;-85
2023/03/21 03:26:45;;;;;;;2.50;2.30;;;7.80;97.30;;;;;;5064961;28;20417;-84
2023/03/21 03:29:15;;;;;;;23.33;4.60;;;7.90;97.30;;;;;;5090401;28;20433;-85
2023/03/21 03:31:46;;;;;;;3.77;3.53;;;7.90;97.30;;;;;;5066827;28;20414;-85
2023/03/21 03:34:16;;;;;;;3.33;3.17;;;7.90;97.30;;;;;;5063940;28;21003;-84
2023/03/21 03:36:46;;;;;;;4.60;1.93;;;7.90;97.30;;;;;;5073013;28;20429;-84
2023/03/21 03:39:13;;;;;;;6.73;3.40;;;7.90;97.30;;;;;;5060361;28;20476;-85
2023/03/21 03:41:51;;;;;;;3.70;3.30;;;7.90;97.30;;;;;;5067285;28;20956;-84
2023/03/21 03:44:16;;;;;;;2.43;2.23;;;7.90;97.30;;;;;;5067042;28;20421;-85
2023/03/21 03:46:51;;;;;;;4.57;3.60;;;7.90;97.30;;;;;;5066377;28;20411;-85
2023/03/21 03:49:21;;;;;;;2.70;2.57;;;7.90;97.30;;;;;;5064264;28;20194;-85
2023/03/21 03:51:56;;;;;;;6.63;2.50;;;7.90;97.30;;;;;;5065696;28;20422;-84
2023/03/21 03:54:27;;;;;;;2.80;2.60;;;7.90;97.30;;;;;;5069185;28;20429;-84
2023/03/21 03:56:53;;;;;;;9.00;2.90;;;7.90;97.30;;;;;;5061751;28;20421;-85
2023/03/21 03:59:22;;;;;;;3.50;3.30;;;7.90;97.30;;;;;;5070165;28;20450;-85
2023/03/21 04:01:48;;;;;;;1.70;1.60;;;7.90;97.30;;;;;;5070857;28;20457;-84
2023/03/21 04:04:15;;;;;;;4.23;3.90;;;7.90;97.30;;;;;;5070620;28;20463;-84
2023/03/21 04:06:44;;;;;;;3.93;3.00;;;7.90;97.30;;;;;;5067860;28;20190;-85
2023/03/21 04:09:10;;;;;;;10.23;3.33;;;7.90;97.30;;;;;;5062722;28;20799;-84
2023/03/21 04:11:36;;;;;;;4.47;1.97;;;7.90;97.30;;;;;;5071281;28;20515;-85
2023/03/21 04:14:01;;;;;;;3.70;3.40;;;7.90;97.30;;;;;;5064923;28;20859;-85
2023/03/21 04:16:30;;;;;;;3.50;2.63;;;7.90;97.30;;;;;;5069764;28;20175;-85
2023/03/21 04:18:55;;;;;;;4.53;2.60;;;7.90;97.30;;;;;;5068225;28;20191;-86
2023/03/21 04:21:21;;;;;;;2.63;1.70;;;7.90;97.30;;;;;;5057010;28;20448;-85
2023/03/21 04:23:46;;;;;;;5.63;2.43;;;7.90;97.30;;;;;;5067637;28;20172;-85
2023/03/21 04:26:12;;;;;;;14.07;3.63;;;7.90;97.30;;;;;;5069900;28;20202;-85
2023/03/21 04:28:38;;;;;;;2.03;1.90;;;7.90;97.30;;;;;;5061170;28;20198;-85
2023/03/21 04:31:05;;;;;;;4.50;3.37;;;7.90;97.30;;;;;;5072770;28;20266;-85
2023/03/21 04:33:31;;;;;;;2.50;1.93;;;7.90;97.30;;;;;;5064391;28;20421;-85
2023/03/21 04:35:57;;;;;;;12.60;3.70;;;7.90;97.30;;;;;;5062085;28;20521;-85
2023/03/21 04:38:25;;;;;;;18.63;3.57;;;7.90;97.30;;;;;;5070512;28;20227;-85
2023/03/21 04:40:51;;;;;;;2.50;1.60;;;7.90;97.30;;;;;;5066987;28;20483;-85
2023/03/21 04:43:16;;;;;;;1.77;1.77;;;7.90;97.30;;;;;;5087878;28;20461;-84
2023/03/21 04:45:42;;;;;;;2.20;2.00;;;7.90;97.30;;;;;;5067242;28;20175;-85
2023/03/21 04:48:08;;;;;;;5.67;2.43;;;7.90;97.30;;;;;;5069437;28;20725;-85
2023/03/21 04:50:33;;;;;;;1.57;1.47;;;7.90;97.30;;;;;;5067554;28;20452;-84
2023/03/21 04:52:59;;;;;;;4.30;2.20;;;8.00;97.30;;;;;;5069913;28;20229;-85
2023/03/21 04:55:26;;;;;;;6.07;3.90;;;8.00;97.30;;;;;;5069265;28;20207;-85
2023/03/21 04:57:52;;;;;;;5.50;2.43;;;8.00;97.30;;;;;;5060088;28;20674;-85
2023/03/21 05:00:19;;;;;;;2.60;2.47;;;8.00;97.30;;;;;;5060126;28;20418;-84
2023/03/21 05:02:45;;;;;;;2.40;2.00;;;8.00;97.30;;;;;;5062007;28;20453;-85
2023/03/21 05:05:12;;;;;;;2.60;2.40;;;8.00;97.30;;;;;;5061817;28;20501;-85
2023/03/21 05:07:39;;;;;;;1.73;1.63;;;8.00;97.30;;;;;;5089607;28;20448;-85
2023/03/21 05:10:07;;;;;;;4.10;2.80;;;8.00;97.30;;;;;;5088286;28;20413;-84
2023/03/21 05:12:32;;;;;;;2.70;2.50;;;8.00;97.30;;;;;;5061135;28;20422;-85
2023/03/21 05:14:58;;;;;;;1.83;1.57;;;8.00;97.30;;;;;;5065174;28;20428;-85
2023/03/21 05:17:23;;;;;;;1.70;1.60;;;8.10;97.30;;;;;;5071670;28;20239;-85
2023/03/21 05:19:51;;;;;;;5.43;2.80;;;8.10;97.30;;;;;;5053510;28;20172;-84
2023/03/21 05:22:18;;;;;;;1.93;1.83;;;8.10;97.30;;;;;;5059206;28;20203;-84
2023/03/21 05:24:49;;;;;;;4.13;2.23;;;8.10;97.30;;;;;;5058993;28;20422;-83
2023/03/21 05:27:32;;;;;;;2.20;2.00;;;8.10;97.30;;;;;;5059801;28;20430;-85
2023/03/21 05:30:04;;;;;;;3.97;3.57;;;8.10;97.30;;;;;;5063855;28;20437;-85
2023/03/21 05:32:30;;;;;;;5.10;4.50;;;8.10;97.30;;;;;;5062568;28;20421;-85
2023/03/21 05:34:55;;;;;;;2.80;2.00;;;8.20;97.30;;;;;;5061155;28;20961;-84
2023/03/21 05:37:22;;;;;;;2.63;2.50;;;8.20;97.30;;;;;;5062872;28;20186;-85
2023/03/21 05:39:47;;;;;;;1.63;1.53;;;8.20;97.30;;;;;;5054115;28;20266;-82
2023/03/21 05:42:13;;;;;;;11.67;2.90;;;8.20;97.30;;;;;;5032414;28;20553;-84
2023/03/21 05:44:39;;;;;;;2.40;2.20;;;8.20;97.30;;;;;;5040427;28;20214;-84
2023/03/21 05:47:05;;;;;;;1.80;1.67;;;8.30;97.30;;;;;;5052911;28;20171;-85
2023/03/21 05:49:31;;;;;;;4.00;2.30;;;8.30;97.30;;;;;;5048265;28;20495;-85
2023/03/21 05:51:57;;;;;;;4.63;3.03;;;8.30;97.30;;;;;;5049854;28;20421;-82
2023/03/21 05:54:22;;;;;;;4.80;2.00;;;8.30;97.30;;;;;;5051597;28;20182;-85
2023/03/21 05:56:48;;;;;;;6.87;3.10;;;8.30;97.30;;;;;;5052677;28;20952;-84
2023/03/21 05:59:13;;;;;;;5.43;2.90;;;8.30;97.30;;;;;;5039112;28;20196;-85
2023/03/21 06:01:39;;;;;;;12.27;3.30;;;8.30;97.30;;;;;;5047720;28;20203;-85
2023/03/21 06:04:05;;;;;;;2.27;1.93;;;8.40;97.30;;;;;;5045736;28;20295;-82
2023/03/21 06:06:30;;;;;;;5.07;2.40;;;8.40;97.30;;;;;;5056542;28;20394;-85
2023/03/21 06:08:56;;;;;;;5.33;2.57;;;8.40;97.30;;;;;;5048311;28;20426;-85
2023/03/21 06:11:27;;;;;;;2.90;2.70;;;8.40;97.30;;;;;;5046920;28;20650;-85
2023/03/21 06:13:53;;;;;;;2.87;1.90;;;8.40;97.30;;;;;;5052446;28;20432;-83
2023/03/21 06:16:18;;;;;;;1.83;1.77;;;8.50;97.30;;;;;;5030269;28;20476;-84
2023/03/21 06:18:44;;;;;;;2.30;2.10;;;8.50;97.30;;;;;;5052725;28;20218;-85
2023/03/21 06:21:09;;;;;;;1.27;1.17;;;8.50;97.30;;;;;;5048784;28;20301;-85
2023/03/21 06:23:36;;;;;;;2.60;2.13;;;8.50;97.30;;;;;;5059147;28;20673;-85
2023/03/21 06:26:02;;;;;;;9.37;3.63;;;8.60;97.30;;;;;;5045508;28;20179;-85
2023/03/21 06:28:28;;;;;;;2.13;1.10;;;8.60;97.30;;;;;;5042354;28;20949;-85
2023/03/21 06:30:53;;;;;;;2.97;2.20;;;8.60;97.30;;;;;;5040285;28;20402;-85
2023/03/21 06:33:19;;;;;;;1.93;1.87;;;8.70;97.30;;;;;;5053841;28;20175;-85
2023/03/21 06:35:50;;;;;;;2.90;2.70;;;8.70;97.30;;;;;;5056416;28;20233;-85
2023/03/21 06:38:15;;;;;;;3.73;1.40;;;8.70;97.30;;;;;;5048648;28;20290;-85
2023/03/21 06:40:41;;;;;;;2.23;2.00;;;8.80;97.30;;;;;;5050264;28;20835;-85
2023/03/21 06:43:06;;;;;;;2.80;2.57;;;8.80;97.30;;;;;;5040035;28;20199;-85
2023/03/21 06:45:32;;;;;;;2.37;1.60;;;8.90;97.30;;;;;;5054059;28;20198;-85
2023/03/21 06:47:57;;;;;;;2.40;2.03;;;8.90;97.30;;;;;;5058718;28;20236;-85
2023/03/21 06:50:23;;;;;;;2.50;2.30;;;8.90;97.30;;;;;;5044169;28;20222;-85
2023/03/21 06:52:48;;;;;;;2.90;2.70;;;8.90;97.30;;;;;;5047963;28;20171;-83
2023/03/21 06:55:14;;;;;;;3.03;2.83;;;8.90;97.30;;;;;;5049369;28;20183;-83
2023/03/21 06:57:39;;;;;;;3.37;3.13;;;8.90;97.30;;;;;;5050051;28;20257;-85
2023/03/21 07:00:07;;;;;;;2.87;2.30;;;8.90;97.30;;;;;;5043480;28;20176;-85
2023/03/21 07:02:33;;;;;;;2.63;2.13;;;9.00;97.30;;;;;;5046508;28;20214;-84
2023/03/21 07:04:58;;;;;;;2.43;2.23;;;9.00;97.30;;;;;;5057931;28;20417;-85
2023/03/21 07:07:26;;;;;;;2.17;2.10;;;9.00;97.30;;;;;;5058111;28;20190;-84
2023/03/21 07:09:51;;;;;;;3.00;1.80;;;9.00;97.30;;;;;;5051349;28;20699;-84
2023/03/21 07:12:17;;;;;;;2.27;2.07;;;9.10;97.30;;;;;;5054432;28;20425;-84
2023/03/21 07:14:42;;;;;;;3.20;2.20;;;9.10;97.30;;;;;;5050664;28;20251;-85
2023/03/21 07:17:08;;;;;;;2.43;1.63;;;9.10;97.30;;;;;;5046471;28;20745;-85
2023/03/21 07:19:33;;;;;;;2.43;1.50;;;9.20;97.30;;;;;;5045142;28;20176;-85
2023/03/21 07:22:00;;;;;;;2.90;2.67;;;9.20;97.30;;;;;;5049373;28;20225;-84
2023/03/21 07:24:26;;;;;;;5.03;1.97;;;9.30;97.30;;;;;;5055103;28;20258;-84
2023/03/21 07:26:52;;;;;;;6.73;2.33;;;9.30;97.30;;;;;;5054541;28;20460;-85
2023/03/21 07:29:20;;;;;;;5.30;3.07;;;9.40;97.30;;;;;;5051548;28;20437;-84
2023/03/21 07:31:45;;;;;;;3.60;1.60;;;9.50;97.30;;;;;;5042086;28;20426;-85
2023/03/21 07:34:11;;;;;;;6.03;2.27;;;9.50;97.30;;;;;;5057391;28;20417;-85
2023/03/21 07:36:37;;;;;;;1.67;1.57;;;9.50;97.30;;;;;;5054958;28;20237;-85
2023/03/21 07:39:03;;;;;;;1.33;1.20;;;9.50;97.30;;;;;;5035976;28;20250;-85
2023/03/21 07:41:29;;;;;;;1.60;1.50;;;9.60;97.30;;;;;;5043284;28;20180;-82
2023/03/21 07:43:54;;;;;;;2.83;2.63;;;9.60;97.30;;;;;;5030962;28;20863;-84
2023/03/21 07:46:19;;;;;;;1.87;1.77;;;9.70;97.30;;;;;;5025782;28;20188;-84
2023/03/21 07:48:45;;;;;;;3.33;3.13;;;9.80;97.30;;;;;;5030693;28;20735;-84
2023/03/21 07:51:10;;;;;;;1.40;1.30;;;9.90;97.30;;;;;;5035638;28;20215;-85
2023/03/21 07:53:36;;;;;;;1.87;1.83;;;10.00;97.30;;;;;;5025782;28;20566;-84
2023/03/21 07:56:02;;;;;;;2.80;1.33;;;10.00;97.30;;;;;;5018819;28;20306;-85
2023/03/21 07:58:28;;;;;;;2.40;1.57;;;10.10;97.30;;;;;;5026952;28;20204;-84
2023/03/21 08:00:57;;;;;;;2.70;2.50;;;10.10;97.30;;;;;;5018320;28;20431;-85
2023/03/21 08:03:22;;;;;;;13.33;1.93;;;10.10;97.30;;;;;;5033663;28;20211;-84
2023/03/21 08:05:49;;;;;;;8.60;1.80;;;10.10;97.30;;;;;;5030117;28;20422;-84
2023/03/21 08:08:14;;;;;;;2.60;2.37;;;10.20;97.30;;;;;;5035727;28;20196;-84
2023/03/21 08:10:42;;;;;;;1.27;1.17;;;10.20;97.30;;;;;;5033859;28;20754;-84
2023/03/21 08:13:08;;;;;;;1.87;1.73;;;10.30;97.30;;;;;;5031738;28;20203;-85
2023/03/21 08:15:34;;;;;;;2.33;2.13;;;10.40;97.30;;;;;;5025607;28;20918;-85
2023/03/21 08:18:00;;;;;;;1.70;1.40;;;10.40;97.30;;;;;;5035214;28;20613;-84
2023/03/21 08:20:26;;;;;;;2.30;2.10;;;10.40;97.30;;;;;;5031694;28;20492;-82
2023/03/21 08:22:51;;;;;;;4.30;2.60;;;10.50;97.30;;;;;;5022931;28;20204;-85
2023/03/21 08:25:19;;;;;;;4.20;1.80;;;10.60;97.30;;;;;;5027607;28;20943;-84
2023/03/21 08:27:45;;;;;;;3.10;2.63;;;10.60;97.30;;;;;;5033410;28;20188;-84
2023/03/21 08:30:12;;;;;;;3.33;3.03;;;10.70;97.30;;;;;;5037341;28;20913;-85
2023/03/21 08:32:40;;;;;;;1.47;1.37;;;10.80;97.30;;;;;;5027516;28;20430;-84
2023/03/21 08:35:11;;;;;;;2.40;2.20;;;10.90;97.30;;;;;;5034262;28;20860;-83
2023/03/21 08:37:37;;;;;;;2.03;1.50;;;10.90;97.30;;;;;;5033654;28;20473;-84
2023/03/21 08:40:10;;;;;;;1.20;1.10;;;11.10;97.30;;;;;;5042104;28;20931;-83
2023/03/21 08:42:37;;;;;;;1.37;1.27;;;11.10;97.30;;;;;;5048755;28;20462;-82
2023/03/21 08:45:03;;;;;;;2.30;1.47;;;11.20;97.30;;;;;;5046053;28;20418;-83
2023/03/21 08:47:29;;;;;;;1.97;1.87;;;11.10;97.30;;;;;;5055128;28;20449;-83
2023/03/21 08:49:56;;;;;;;1.40;1.30;;;11.10;97.30;;;;;;5041401;28;20417;-84
2023/03/21 08:52:21;;;;;;;2.23;1.70;;;11.20;97.30;;;;;;5052667;28;20766;-83
2023/03/21 08:54:47;;;;;;;2.43;2.27;;;11.20;97.30;;;;;;5036719;28;20564;-84
2023/03/21 08:57:13;;;;;;;3.30;3.10;;;11.30;97.30;;;;;;5042930;28;20262;-84
2023/03/21 08:59:39;;;;;;;24.67;2.10;;;11.20;97.30;;;;;;5047441;28;20230;-83
2023/03/21 09:02:05;;;;;;;3.20;1.60;;;11.30;97.30;;;;;;5046023;28;20482;-84
2023/03/21 09:04:30;;;;;;;1.57;1.47;;;11.30;97.30;;;;;;5040005;28;20761;-84
2023/03/21 09:06:56;;;;;;;3.70;2.20;;;11.40;97.30;;;;;;5046529;28;20183;-82
2023/03/21 09:09:22;;;;;;;12.30;4.23;;;11.50;97.30;;;;;;5043810;28;20871;-83
2023/03/21 09:11:48;;;;;;;3.70;2.13;;;11.50;97.30;;;;;;5054054;28;20183;-84
2023/03/21 09:14:13;;;;;;;4.73;1.97;;;11.50;97.30;;;;;;5048233;28;20417;-83
2023/03/21 09:16:40;;;;;;;3.63;2.30;;;11.50;97.30;;;;;;5060608;28;20175;-83
2023/03/21 09:19:07;;;;;;;4.67;2.27;;;11.50;97.30;;;;;;5076523;28;20202;-84
2023/03/21 09:21:34;;;;;;;2.33;2.13;;;11.60;97.30;;;;;;5070858;28;20417;-84
2023/03/21 09:24:01;;;;;;;1.53;1.53;;;11.50;97.30;;;;;;5060594;28;20784;-83
2023/03/21 09:26:27;;;;;;;1.70;1.40;;;11.60;97.30;;;;;;5070891;28;20512;-83
2023/03/21 09:28:54;;;;;;;1.20;1.10;;;11.60;97.30;;;;;;5070104;28;20525;-83
2023/03/21 09:31:21;;;;;;;1.20;1.10;;;11.80;97.30;;;;;;5062302;28;20426;-84
2023/03/21 09:33:51;;;;;;;5.87;3.03;;;11.90;97.30;;;;;;5075730;28;20425;-84
2023/03/21 09:36:20;;;;;;;10.97;3.57;;;12.00;97.30;;;;;;5053102;28;20430;-83
2023/03/21 09:38:48;;;;;;;6.33;2.10;;;12.00;97.30;;;;;;5059794;28;20465;-83
2023/03/21 09:41:40;;;;;;;5.03;3.90;;;12.00;97.30;;;;;;5062424;28;20470;-83
2023/03/21 09:44:44;;;;;;;3.47;2.93;;;12.10;97.30;;;;;;5041194;28;20472;-83
2023/03/21 09:47:12;;;;;;;2.23;2.07;;;12.20;97.30;;;;;;5039785;28;20428;-83
2023/03/21 09:49:43;;;;;;;14.57;3.60;;;12.10;97.30;;;;;;5041235;28;20811;-84
2023/03/21 09:52:23;;;;;;;3.37;2.23;;;12.10;97.30;;;;;;5043447;28;20446;-83
2023/03/21 09:54:49;;;;;;;4.23;1.93;;;12.00;97.30;;;;;;5051339;28;20444;-84
2023/03/21 09:57:35;;;;;;;1.67;1.63;;;12.10;97.30;;;;;;5047239;28;21051;-83
2023/03/21 10:00:15;;;;;;;8.50;2.73;;;12.10;97.30;;;;;;5053376;28;20414;-83
2023/03/21 10:02:46;;;;;;;1.83;1.73;;;12.30;97.30;;;;;;5052376;28;20454;-83
2023/03/21 10:05:29;;;;;;;3.10;2.90;;;12.40;97.30;;;;;;5054437;28;20417;-83
2023/03/21 10:08:05;;;;;;;1.93;1.83;;;12.60;97.30;;;;;;5040034;28;20458;-79
2023/03/21 10:10:49;;;;;;;1.47;1.37;;;12.70;97.30;;;;;;5050085;28;20492;-83
2023/03/21 10:13:21;;;;;;;2.83;2.20;;;12.80;97.30;;;;;;5048525;28;20426;-82
2023/03/21 10:15:47;;;;;;;1.97;1.83;;;12.90;97.30;;;;;;5051680;28;20913;-83
2023/03/21 10:18:21;;;;;;;2.23;1.60;;;13.00;97.30;;;;;;5046273;28;20453;-83
2023/03/21 10:20:48;;;;;;;3.03;1.93;;;13.00;97.30;;;;;;5051266;28;20512;-83
2023/03/21 10:23:17;;;;;;;2.30;2.10;;;13.00;97.30;;;;;;5052411;28;20556;-83
2023/03/21 10:25:54;;;;;;;1.63;1.43;;;13.20;97.30;;;;;;5050855;28;20497;-83
2023/03/21 10:28:25;;;;;;;1.50;1.40;;;13.40;97.30;;;;;;5054718;28;20536;-84
2023/03/21 10:30:54;;;;;;;1.07;0.97;;;13.70;97.20;;;;;;5046316;28;20488;-83
2023/03/21 10:33:24;;;;;;;3.27;3.07;;;13.90;96.90;;;;;;5047408;28;20508;-83
2023/03/21 10:35:54;;;;;;;3.23;2.23;;;14.10;96.60;;;;;;5058723;28;20423;-83
2023/03/21 10:38:23;;;;;;;2.20;1.43;;;14.10;96.10;;;;;;5047690;28;20508;-82
2023/03/21 10:40:49;;;;;;;2.07;1.90;;;14.00;95.80;;;;;;5044256;28;20959;-83
2023/03/21 10:43:20;;;;;;;1.80;1.70;;;14.00;95.50;;;;;;5051889;28;20507;-83
2023/03/21 10:45:47;;;;;;;1.63;1.53;;;14.10;95.40;;;;;;5045311;28;20418;-80
2023/03/21 10:48:13;;;;;;;3.07;2.87;;;14.30;95.70;;;;;;5053769;28;20433;-84
2023/03/21 10:50:40;;;;;;;4.73;3.50;;;14.50;94.50;;;;;;5050517;28;20971;-83
2023/03/21 10:53:33;;;;;;;2.07;1.70;;;14.70;95.30;;;;;;5053950;28;20184;-83
2023/03/21 10:56:00;;;;;;;3.40;1.93;;;14.70;93.60;;;;;;5045451;28;20429;-83
2023/03/21 10:58:29;;;;;;;1.60;1.50;;;14.80;94.00;;;;;;5048541;28;20545;-83
2023/03/21 11:01:06;;;;;;;4.10;2.03;;;14.70;94.00;;;;;;5043513;28;20912;-83
2023/03/21 11:03:37;;;;;;;2.10;1.90;;;14.60;93.50;;;;;;5046216;28;20453;-83
2023/03/21 11:06:25;;;;;;;4.03;1.90;;;14.80;94.40;;;;;;5050794;28;20413;-83
2023/03/21 11:08:55;;;;;;;2.57;2.37;;;15.20;94.80;;;;;;5051703;28;20976;-83
2023/03/21 11:11:32;;;;;;;4.00;1.80;;;15.50;92.80;;;;;;5053421;28;20421;-83
2023/03/21 11:14:08;;;;;;;1.80;1.70;;;15.50;92.30;;;;;;5052029;28;20787;-83
2023/03/21 11:16:40;;;;;;;1.60;1.50;;;15.50;92.10;;;;;;5047886;28;20422;-83
2023/03/21 11:19:24;;;;;;;3.37;2.97;;;15.50;91.70;;;;;;5043986;28;20483;-82
2023/03/21 11:21:50;;;;;;;1.90;1.80;;;15.50;92.20;;;;;;5052647;28;21122;-83
2023/03/21 11:24:17;;;;;;;8.73;2.73;;;15.40;92.30;;;;;;5045313;28;20564;-79
2023/03/21 11:26:46;;;;;;;11.53;2.40;;;15.40;92.10;;;;;;5049876;28;20217;-83
2023/03/21 11:29:39;;;;;;;4.70;3.17;;;15.40;92.00;;;;;;5054095;28;20488;-83
2023/03/21 11:32:25;;;;;;;4.20;2.83;;;15.40;91.80;;;;;;5043873;28;20425;-83
2023/03/21 11:34:58;;;;;;;6.80;3.20;;;15.50;91.60;;;;;;5054516;28;20464;-82
2023/03/21 11:37:31;;;;;;;1.60;1.50;;;15.80;92.10;;;;;;5054969;28;20933;-82
2023/03/21 11:40:22;;;;;;;3.07;2.70;;;16.20;90.90;;;;;;5051783;28;20425;-85
2023/03/21 11:42:52;;;;;;;8.00;3.20;;;16.50;90.80;;;;;;5053083;28;20506;-83
2023/03/21 11:45:19;;;;;;;2.40;2.10;;;16.90;89.30;;;;;;5071160;28;20422;-79
2023/03/21 11:47:48;;;;;;;1.30;1.20;;;17.10;89.00;;;;;;5045785;28;20888;-84
2023/03/21 11:50:20;;;;;;;3.13;2.30;;;17.20;88.50;;;;;;5047750;28;20423;-83
2023/03/21 11:53:00;;;;;;;2.13;2.00;;;17.10;88.60;;;;;;5050299;28;20522;-83
2023/03/21 11:55:35;;;;;;;5.60;2.17;;;17.00;87.80;;;;;;5055014;28;20427;-83
2023/03/21 11:58:20;;;;;;;2.50;2.30;;;17.00;88.80;;;;;;5052215;28;20461;-82
2023/03/21 12:01:08;;;;;;;1.70;1.60;;;16.90;88.30;;;;;;5047250;28;20433;-83
2023/03/21 12:03:56;;;;;;;1.53;1.43;;;16.60;89.00;;;;;;5053777;28;21006;-82
2023/03/21 12:06:36;;;;;;;15.13;2.47;;;16.60;89.90;;;;;;5046925;28;20417;-83
2023/03/21 12:09:06;;;;;;;3.87;2.73;;;16.60;88.50;;;;;;5049486;28;20445;-79
2023/03/21 12:11:55;;;;;;;4.23;2.03;;;16.50;88.80;;;;;;5051865;28;20425;-84
2023/03/21 12:14:54;;;;;;;3.03;1.87;;;16.30;88.80;;;;;;5044278;28;20422;-84
2023/03/21 12:17:49;;;;;;;2.87;2.23;;;16.30;89.10;;;;;;5047004;28;20424;-81
2023/03/21 12:20:39;;;;;;;1.87;1.80;;;16.30;89.40;;;;;;5047741;28;20415;-83
2023/03/21 12:23:31;;;;;;;2.27;1.80;;;16.70;89.50;;;;;;5045857;28;20751;-80
2023/03/21 12:26:07;;;;;;;1.73;1.63;;;16.90;89.00;;;;;;5070383;28;20451;-84
2023/03/21 12:28:58;;;;;;;2.50;2.30;;;17.00;88.00;;;;;;5049990;28;20523;-84
2023/03/21 12:31:48;;;;;;;1.83;1.60;;;16.80;87.70;;;;;;5047745;28;20418;-84
2023/03/21 12:34:35;;;;;;;8.00;2.37;;;16.80;88.40;;;;;;5039044;28;20426;-84
2023/03/21 12:37:25;;;;;;;3.57;3.10;;;16.70;88.30;;;;;;5040407;28;20603;-83
2023/03/21 12:39:58;;;;;;;3.07;1.93;;;16.70;88.70;;;;;;5042123;28;20417;-85
2023/03/21 12:42:48;;;;;;;1.70;1.60;;;16.90;88.60;;;;;;5045627;28;20458;-84
2023/03/21 12:45:27;;;;;;;2.40;1.13;;;16.90;88.20;;;;;;5046839;28;20504;-81
2023/03/21 12:48:00;;;;;;;2.00;1.67;;;16.90;88.10;;;;;;5050100;28;20437;-84
2023/03/21 12:50:35;;;;;;;3.73;1.93;;;16.80;88.00;;;;;;5049626;28;20444;-84
2023/03/21 12:53:26;;;;;;;1.30;1.20;;;16.70;88.90;;;;;;5052655;28;21057;-84
2023/03/21 12:55:57;;;;;;;3.43;2.40;;;16.50;88.10;;;;;;5066845;28;20425;-85
2023/03/21 12:58:24;;;;;;;1.50;1.40;;;16.60;88.80;;;;;;5048510;28;20437;-82
2023/03/21 13:00:52;;;;;;;2.33;1.77;;;16.60;89.00;;;;;;5051275;28;20429;-84
2023/03/21 13:03:25;;;;;;;2.63;1.73;;;16.60;88.90;;;;;;5038739;28;20458;-84
2023/03/21 13:05:59;;;;;;;1.97;1.87;;;16.60;88.70;;;;;;5040304;28;20799;-84
2023/03/21 13:08:27;;;;;;;2.30;1.70;;;16.60;89.00;;;;;;5046467;28;20556;-83
2023/03/21 13:10:54;;;;;;;2.40;2.20;;;16.70;88.50;;;;;;5057438;28;20410;-79